createdAt,value
2019-02-22T00:03:11.112Z,99.9
2019-02-22T00:13:16.074Z,99.9
2019-02-22T00:18:18.500Z,99.9
2019-02-22T00:23:20.950Z,99.9
2019-02-22T00:28:23.424Z,99.9
2019-02-22T00:33:25.851Z,99.9
2019-02-22T00:38:28.317Z,99.9
2019-02-22T00:43:30.784Z,99.9
2019-02-22T00:48:33.240Z,99.9
2019-02-22T00:53:35.702Z,99.9
2019-02-22T00:58:38.289Z,99.9
2019-02-22T01:03:40.654Z,99.9
2019-02-22T01:08:43.055Z,99.9
2019-02-22T01:13:45.517Z,99.9
2019-02-22T01:18:48.044Z,99.9
2019-02-22T01:23:50.460Z,99.9
2019-02-22T01:33:55.345Z,99.9
2019-02-22T01:38:57.847Z,99.9
2019-02-22T01:44:00.258Z,99.9
2019-02-22T01:49:02.807Z,99.9
2019-02-22T01:54:05.187Z,99.9
2019-02-22T01:59:07.656Z,99.9
2019-02-22T02:04:10.144Z,99.9
2019-02-22T02:09:12.589Z,99.9
2019-02-22T02:14:15.071Z,99.9
2019-02-22T02:19:17.515Z,99.9
2019-02-22T02:24:20.095Z,99.9
2019-02-22T02:29:22.468Z,99.9
2019-02-22T02:34:24.879Z,99.9
2019-02-22T02:39:27.358Z,99.9
2019-02-22T02:44:29.816Z,99.9
2019-02-22T02:49:32.365Z,99.9
2019-02-22T02:54:34.786Z,99.9
2019-02-22T02:59:37.199Z,99.9
2019-02-22T03:04:39.668Z,99.9
2019-02-22T03:09:42.085Z,99.9
2019-02-22T03:14:44.620Z,99.9
2019-02-22T03:19:46.991Z,99.9
2019-02-22T03:24:49.453Z,99.9
2019-02-22T03:29:51.950Z,99.9
2019-02-22T03:34:54.435Z,99.9
2019-02-22T03:39:56.946Z,99.9
2019-02-22T03:44:59.290Z,99.9
2019-02-22T03:50:06.734Z,99.9
2019-02-22T03:55:04.210Z,99.9
2019-02-22T04:00:06.731Z,99.9
2019-02-22T04:05:09.153Z,99.9
2019-02-22T04:10:11.591Z,99.9
2019-02-22T04:15:14.047Z,99.9
2019-02-22T04:20:16.539Z,99.9
2019-02-22T04:25:19.000Z,99.9
2019-02-22T04:30:21.415Z,99.9
2019-02-22T04:35:24.210Z,99.9
2019-02-22T04:40:26.375Z,99.9
2019-02-22T04:45:28.846Z,99.9
2019-02-22T04:50:31.338Z,99.9
2019-02-22T04:55:33.715Z,99.9
2019-02-22T05:00:36.288Z,99.9
2019-02-22T05:05:38.639Z,99.9
2019-02-22T05:10:41.090Z,99.9
2019-02-22T05:15:43.564Z,99.9
2019-02-22T05:20:46.014Z,99.9
2019-02-22T05:25:53.536Z,99.9
2019-02-22T05:30:50.955Z,99.9
2019-02-22T05:35:53.437Z,99.9
2019-02-22T05:40:55.846Z,99.9
2019-02-22T05:45:58.355Z,99.9
2019-02-22T05:51:00.743Z,99.9
2019-02-22T05:56:03.200Z,99.9
2019-02-22T06:01:06.829Z,99.9
2019-02-22T06:06:08.500Z,99.9
2019-02-22T06:16:13.029Z,99.9
2019-02-22T06:21:15.622Z,99.9
2019-02-22T06:26:17.991Z,99.9
2019-02-22T06:31:20.420Z,99.9
2019-02-22T06:36:22.870Z,99.9
2019-02-22T06:41:25.357Z,99.9
2019-02-22T06:46:27.966Z,99.9
2019-02-22T06:51:30.233Z,99.9
2019-02-22T06:56:32.725Z,99.9
2019-02-22T07:01:35.162Z,99.9
2019-02-22T07:06:37.921Z,99.9
2019-02-22T07:11:40.073Z,99.9
2019-02-22T07:16:42.532Z,99.9
2019-02-22T07:21:52.315Z,99.9
2019-02-22T07:26:47.512Z,99.9
2019-02-22T07:31:49.949Z,99.9
2019-02-22T07:36:52.373Z,99.9
2019-02-22T07:41:54.832Z,99.9
2019-02-22T07:46:57.283Z,99.9
2019-02-22T07:51:59.777Z,99.9
2019-02-22T07:57:02.243Z,99.9
2019-02-22T08:02:04.713Z,99.9
2019-02-22T08:07:07.139Z,99.9
2019-02-22T08:12:09.604Z,99.9
2019-02-22T08:17:14.582Z,99.9
2019-02-22T08:22:14.511Z,99.9
2019-02-22T08:27:16.958Z,99.9
2019-02-22T08:32:19.485Z,99.9
2019-02-22T08:37:21.886Z,99.9
2019-02-22T08:42:24.333Z,99.9
2019-02-22T08:47:26.805Z,99.9
2019-02-22T08:52:29.273Z,99.9
2019-02-22T08:57:31.770Z,99.9
2019-02-22T09:02:34.177Z,99.9
2019-02-22T09:07:36.751Z,99.9
2019-02-22T09:12:39.159Z,99.9
2019-02-22T09:17:41.706Z,99.9
2019-02-22T09:22:44.025Z,99.9
2019-02-22T09:27:46.529Z,99.9
2019-02-22T09:32:49.079Z,99.9
2019-02-22T09:37:51.480Z,99.9
2019-02-22T09:42:53.864Z,99.9
2019-02-22T09:47:56.293Z,99.9
2019-02-22T09:52:58.757Z,99.9
2019-02-22T09:58:01.274Z,99.9
2019-02-22T10:03:03.667Z,99.9
2019-02-22T10:08:06.171Z,99.9
2019-02-22T10:13:08.601Z,99.9
2019-02-22T10:18:11.115Z,99.9
2019-02-22T10:23:13.525Z,99.9
2019-02-22T10:28:17.959Z,99.9
2019-02-22T10:33:18.416Z,99.9
2019-02-22T10:38:20.887Z,99.9
2019-02-22T10:43:23.365Z,99.9
2019-02-22T10:53:28.274Z,99.9
2019-02-22T10:58:30.782Z,99.9
2019-02-22T11:03:33.173Z,99.9
2019-02-22T11:08:35.639Z,99.9
2019-02-22T11:13:38.091Z,99.9
2019-02-22T11:18:40.568Z,99.9
2019-02-22T11:23:43.046Z,99.9
2019-02-22T11:28:45.489Z,99.9
2019-02-22T11:33:47.919Z,99.9
2019-02-22T11:38:50.428Z,99.9
2019-02-22T11:43:52.844Z,99.9
2019-02-22T11:48:55.305Z,99.9
2019-02-22T11:53:57.797Z,99.9
2019-02-22T11:59:00.210Z,99.9
2019-02-22T12:04:02.763Z,99.9
2019-02-22T12:09:05.149Z,99.9
2019-02-22T12:14:07.638Z,99.9
2019-02-22T12:19:10.032Z,99.9
2019-02-22T12:24:12.520Z,99.9
2019-02-22T12:29:14.963Z,99.9
2019-02-22T12:34:17.446Z,99.9
2019-02-22T12:39:19.957Z,99.9
2019-02-22T12:44:22.318Z,99.9
2019-02-22T12:49:24.788Z,99.9
2019-02-22T12:54:27.232Z,99.9
2019-02-22T12:59:29.838Z,99.9
2019-02-22T13:04:32.279Z,99.9
2019-02-22T13:09:36.828Z,99.9
2019-02-22T13:14:37.059Z,99.9
2019-02-22T13:19:39.517Z,99.9
2019-02-22T13:24:41.971Z,99.9
2019-02-22T13:29:44.434Z,99.9
2019-02-22T13:34:46.926Z,99.9
2019-02-22T13:39:49.390Z,99.9
2019-02-22T13:44:51.867Z,99.9
2019-02-22T13:49:54.273Z,99.9
2019-02-22T13:54:56.794Z,99.9
2019-02-22T13:59:59.186Z,99.9
2019-02-22T14:05:06.759Z,99.9
2019-02-22T14:10:04.126Z,99.9
2019-02-22T14:15:06.568Z,99.9
2019-02-22T14:20:09.010Z,99.9
2019-02-22T14:25:11.591Z,99.9
2019-02-22T14:30:13.934Z,99.9
2019-02-22T14:35:16.534Z,99.9
2019-02-22T14:40:18.866Z,99.9
2019-02-22T14:45:21.336Z,99.9
2019-02-22T14:50:23.807Z,99.9
2019-02-22T14:55:26.218Z,99.9
2019-02-22T15:00:28.748Z,99.9
2019-02-22T15:05:31.198Z,99.9
2019-02-22T15:10:33.616Z,99.9
2019-02-22T15:15:36.124Z,99.9
2019-02-22T15:20:38.546Z,99.9
2019-02-22T15:25:41.036Z,99.9
2019-02-22T15:30:45.205Z,99.9
2019-02-22T15:35:45.977Z,99.9
2019-02-22T15:40:48.404Z,99.9
2019-02-22T15:45:50.897Z,99.9
2019-02-22T15:50:53.334Z,99.9
2019-02-22T15:55:55.793Z,99.9
2019-02-22T16:00:58.256Z,99.9
2019-02-22T16:06:00.721Z,99.9
2019-02-22T16:11:03.214Z,99.9
2019-02-22T16:16:05.643Z,99.9
2019-02-22T16:21:08.107Z,99.9
2019-02-22T16:26:10.575Z,99.9
2019-02-22T16:31:13.073Z,99.9
2019-02-22T16:36:15.510Z,99.9
2019-02-22T16:41:18.011Z,99.9
2019-02-22T16:46:20.561Z,99.9
2019-02-22T16:51:22.884Z,99.9
2019-02-22T16:56:25.463Z,99.9
2019-02-22T17:01:28.062Z,99.9
2019-02-22T17:06:30.296Z,99.9
2019-02-22T17:11:32.759Z,99.9
2019-02-22T17:16:45.184Z,99.9
2019-02-22T17:21:37.721Z,99.9
2019-02-22T17:26:40.156Z,99.9
2019-02-22T17:31:42.625Z,99.9
2019-02-22T17:36:45.084Z,99.9
2019-02-22T17:41:47.573Z,99.9
2019-02-22T17:46:57.509Z,99.9
2019-02-22T17:51:52.475Z,99.9
2019-02-22T17:56:54.980Z,99.9
2019-02-22T18:01:57.505Z,99.9
2019-02-22T18:06:59.883Z,99.7
2019-02-22T18:12:02.399Z,83
2019-02-22T18:17:08.252Z,78.2
2019-02-22T18:22:07.291Z,54.5
2019-02-22T18:27:09.752Z,58.7
2019-02-22T18:32:12.208Z,66.6
2019-02-22T18:37:14.641Z,78.4
2019-02-22T18:42:17.152Z,78.4
2019-02-22T18:47:19.964Z,85.8
2019-02-22T18:52:22.069Z,83.1
2019-02-22T18:57:24.525Z,82.2
2019-02-22T19:02:26.943Z,90.2
2019-02-22T19:07:29.408Z,66.3
2019-02-22T19:12:31.856Z,71.7
2019-02-22T19:22:36.778Z,72
2019-02-22T19:27:39.251Z,89.4
2019-02-22T19:32:41.764Z,74.8
2019-02-22T19:37:44.199Z,63.1
2019-02-22T19:42:46.673Z,61.1
2019-02-22T19:47:49.102Z,69.6
2019-02-22T19:52:51.588Z,85.3
2019-02-22T19:57:54.014Z,99.9
2019-02-22T20:02:56.492Z,99.9
2019-02-22T20:07:58.930Z,99.9
2019-02-22T20:13:01.420Z,99.9
2019-02-22T20:18:03.835Z,95.2
2019-02-22T20:23:06.316Z,96.4
2019-02-22T20:28:08.787Z,99.9
2019-02-22T20:33:11.241Z,99.9
2019-02-22T20:38:13.687Z,99.9
2019-02-22T20:43:16.163Z,99.9
2019-02-22T20:48:18.591Z,99.9
2019-02-22T20:53:21.037Z,99.9
2019-02-22T20:58:23.544Z,99.9
2019-02-22T21:03:25.977Z,99.9
2019-02-22T21:08:28.411Z,99.9
2019-02-22T21:13:30.944Z,99.9
2019-02-22T21:18:33.331Z,99.9
2019-02-22T21:23:35.829Z,99.9
2019-02-22T21:33:40.686Z,99.9
2019-02-22T21:38:43.171Z,99.9
2019-02-22T21:43:45.618Z,99.9
2019-02-22T21:48:48.109Z,99.9
2019-02-22T21:53:50.598Z,99.9
2019-02-22T22:49:17.563Z,99.9
2019-02-22T22:54:19.999Z,99.9
2019-02-22T22:59:22.470Z,99.9
2019-02-22T23:04:24.924Z,99.9
2019-02-22T23:09:27.389Z,99.9
2019-02-22T23:14:29.897Z,99.9
2019-02-22T23:19:32.319Z,99.9
2019-02-22T23:24:34.778Z,99.9
2019-02-22T23:29:37.203Z,99.9
2019-02-22T23:34:39.701Z,99.9
2019-02-22T23:39:42.120Z,99.9
2019-02-22T23:44:44.582Z,99.9
2019-02-22T23:49:47.021Z,99.9
2019-02-22T23:54:49.486Z,99.9
2019-02-22T23:59:51.945Z,99.9
